Hauptseite
METAR-TAF:

METAR-TAF

Flughäfen :

Verkehrslandeplatz Hof-Plauen

Hof, Deutschland

Breite: 50-19N, Länge: 011-53E, Höhe: 567 m

Beobachtung

Neuester Wetterbericht von vor 28 Minuten, um 00:50 UTC
Wind 3 kt aus West/Nordwest
Temperatur -4°C
Luftfeuchtigkeit 93%
Luftdruck 1036 hPa
Sichtweite 10 km oder mehr

METAR: EDQM 050050Z AUTO 30003KT 9999 // NCD M04/M05 Q1036

Zeit: 02:18 (01:18 UTC)

Prognose

Neuester Wetterbericht von vor 8 Stunden und 18 Minuten, um 17:00 UTC
Gültige Prognose vom 04 um 18 UTC bis 05 um 03 UTC
Wind 2 kt aus unterschiedlichen Richtungen
Sichtweite 10 km oder mehr
Leicht bewölkt in der Höhe von 2500 ft
Durchbrochene Bewölkung in der Höhe von 4000 ft
Wahrscheinlichkeit 30% :
Zeitweise
vom 05 um 00 UTC bis 05 um 03 UTC
Durchbrochene Bewölkung in der Höhe von 1000 ft

TAF: EDQM 041700Z 0418/0503 VRB02KT 9999 FEW025 BKN040 PROB30 TEMPO 0500/0503 BKN010

Wetterbeobachtungen und Prognosen von mehr als 4000 Flughäfen (METAR und TAF Bericht).

Die verfügbaren Stationen werden durch gelbe und rote Markierungen auf der Karte dargestellt.

Führen Sie die Maus auf sie, um den Namen der Station zu sehen.

Darauf klicken, um die Beobachtung von Wetterbeobachtungen und Prognosen zu sehen.

Um die Karte zu ändern : klicken Sie auf den grünen Tasten mit einem schwarzen Kreuz Zum Vergrößern, auf den grünen Button mit einem Gedankenstrich zu verkleinern, oder auf die grünen Pfeile für benachbarte Karten.


METAR-TAF: